Time;durP1;ratioP1;P1;durP2;ratioP2;P2;SDS_P1;SDS_P2;PMS_P1;PMS_P2;Temp;Humidity;BMP_temperature;BMP_pressure;BME280_temperature;BME280_humidity;BME280_pressure;Samples;Min_cycle;Max_cycle;Signal;HPM_P1;HPM_P2
2022/05/18 00:02:26;;;;;;;14.25;10.40;;;;;;;;;;5033935;28;20112;-53
2022/05/18 00:04:51;;;;;;;6.90;5.68;;;18.40;99.90;;;;;;5033461;28;20014;-52
2022/05/18 00:07:17;;;;;;;6.10;3.60;;;18.40;99.90;;;;;;5033657;28;20048;-53
2022/05/18 00:09:43;;;;;;;4.43;3.28;;;18.40;99.90;;;;;;5033899;28;20107;-54
2022/05/18 00:12:10;;;;;;;9.57;3.40;;;18.40;99.90;;;;;;5033555;28;20022;-52
2022/05/18 00:14:36;;;;;;;3.83;3.05;;;18.30;99.90;;;;;;5033510;28;20018;-55
2022/05/18 00:17:03;;;;;;;4.53;3.75;;;18.40;99.90;;;;;;5033320;28;20060;-53
2022/05/18 00:19:32;;;;;;;3.72;2.72;;;18.40;99.90;;;;;;5033648;28;20072;-53
2022/05/18 00:21:59;;;;;;;4.68;3.30;;;18.30;99.90;;;;;;5032882;28;20446;-51
2022/05/18 00:24:25;;;;;;;4.40;3.30;;;18.30;99.90;;;;;;5030686;28;20873;-54
2022/05/18 00:26:51;;;;;;;4.68;3.33;;;18.20;99.90;;;;;;5031111;28;20036;-54
2022/05/18 00:29:17;;;;;;;4.03;3.30;;;18.20;99.90;;;;;;5030792;28;20029;-54
2022/05/18 00:31:46;;;;;;;4.43;2.72;;;18.20;99.90;;;;;;5031222;28;20030;-51
2022/05/18 00:34:13;;;;;;;3.75;2.80;;;18.20;99.90;;;;;;5030843;28;20037;-50
2022/05/18 00:36:39;;;;;;;3.97;2.50;;;18.10;99.90;;;;;;5030841;28;20070;-55
2022/05/18 00:39:05;;;;;;;4.25;2.83;;;17.80;99.90;;;;;;5030816;28;20041;-53
2022/05/18 00:41:32;;;;;;;5.00;2.55;;;18.10;99.90;;;;;;5030816;28;20029;-51
2022/05/18 00:43:58;;;;;;;4.32;3.15;;;18.10;99.90;;;;;;5030890;28;20164;-53
2022/05/18 00:46:24;;;;;;;4.15;2.88;;;18.00;99.90;;;;;;5030952;28;20104;-52
2022/05/18 00:48:53;;;;;;;3.17;2.60;;;17.90;99.90;;;;;;5030758;28;20033;-53
2022/05/18 00:51:38;;;;;;;3.45;2.90;;;17.80;99.90;;;;;;5030733;28;20029;-53
2022/05/18 00:54:14;;;;;;;3.97;2.90;;;17.80;99.90;;;;;;5030601;28;20366;-53
2022/05/18 00:56:49;;;;;;;3.00;2.60;;;17.80;99.90;;;;;;5033092;28;20049;-53
2022/05/18 00:59:23;;;;;;;5.72;2.67;;;17.70;99.90;;;;;;5032916;28;20469;-54
2022/05/18 01:01:50;;;;;;;5.05;2.80;;;17.70;99.90;;;;;;5032850;28;20373;-54
2022/05/18 01:04:16;;;;;;;5.38;3.40;;;17.80;99.90;;;;;;5032742;28;20021;-52
2022/05/18 01:06:49;;;;;;;4.75;3.08;;;17.80;99.90;;;;;;5032886;28;20029;-53
2022/05/18 01:09:45;;;;;;;3.95;3.03;;;17.90;99.90;;;;;;5047415;28;20034;-53
2022/05/18 01:12:17;;;;;;;4.75;3.60;;;17.90;99.90;;;;;;5030654;28;20585;-52
2022/05/18 01:15:01;;;;;;;5.38;3.17;;;18.00;99.90;;;;;;5030519;28;20435;-53
2022/05/18 01:17:32;;;;;;;4.07;2.88;;;18.00;99.90;;;;;;5030489;28;20077;-54
2022/05/18 01:20:00;;;;;;;6.13;3.20;;;18.10;99.90;;;;;;5030558;28;20033;-52
2022/05/18 01:22:55;;;;;;;4.78;3.60;;;18.10;99.90;;;;;;5030378;28;20068;-52
2022/05/18 01:25:42;;;;;;;4.05;2.97;;;18.10;99.90;;;;;;5029339;28;20053;-55
2022/05/18 01:28:08;;;;;;;4.93;3.42;;;18.10;99.90;;;;;;5030443;28;20500;-55
2022/05/18 01:30:35;;;;;;;4.32;3.40;;;18.10;99.90;;;;;;5030404;28;20068;-52
2022/05/18 01:33:06;;;;;;;5.20;3.42;;;18.10;99.90;;;;;;5030570;28;20033;-53
2022/05/18 01:35:34;;;;;;;8.43;3.67;;;18.00;99.90;;;;;;5033828;28;20053;-52
2022/05/18 01:38:00;;;;;;;3.22;2.72;;;18.00;99.90;;;;;;5033945;28;20021;-54
2022/05/18 01:41:02;;;;;;;3.92;2.72;;;17.90;99.90;;;;;;5033905;28;20029;-52
2022/05/18 01:43:37;;;;;;;;;;;17.80;99.90;;;;;;5001235;28;20128;-55
2022/05/18 01:46:07;;;;;;;6.82;3.65;;;17.80;99.90;;;;;;5033667;28;20026;-54
2022/05/18 01:48:36;;;;;;;4.22;3.17;;;17.80;99.90;;;;;;5007687;28;20029;-52
2022/05/18 01:51:04;;;;;;;4.30;3.42;;;17.80;99.90;;;;;;5036022;28;20493;-52
2022/05/18 01:53:32;;;;;;;5.32;3.88;;;17.80;99.90;;;;;;5035654;28;20100;-55
2022/05/18 01:55:57;;;;;;;5.25;3.47;;;17.60;99.90;;;;;;5035460;28;20038;-58
2022/05/18 01:58:24;;;;;;;4.30;3.40;;;17.70;99.90;;;;;;5035896;28;20021;-53
2022/05/18 02:00:50;;;;;;;4.45;3.45;;;17.70;99.90;;;;;;5050584;28;20473;-53
2022/05/18 02:03:18;;;;;;;5.45;3.40;;;17.70;99.90;;;;;;5035792;28;20389;-53
2022/05/18 02:05:44;;;;;;;3.88;3.33;;;17.70;99.90;;;;;;5035578;28;20022;-55
2022/05/18 02:08:11;;;;;;;6.75;3.75;;;17.70;99.90;;;;;;5035615;28;20113;-54
2022/05/18 02:10:38;;;;;;;5.15;3.92;;;17.80;99.90;;;;;;5035519;28;20539;-54
2022/05/18 02:13:04;;;;;;;5.80;4.10;;;17.80;99.90;;;;;;5035528;28;20397;-52
2022/05/18 02:15:30;;;;;;;8.77;3.38;;;17.80;99.90;;;;;;5050061;28;20481;-52
2022/05/18 02:17:56;;;;;;;4.50;2.80;;;17.80;99.90;;;;;;5035510;28;20021;-54
2022/05/18 02:20:22;;;;;;;6.35;3.67;;;17.60;99.90;;;;;;5033557;28;20048;-54
2022/05/18 02:22:51;;;;;;;6.47;3.80;;;17.60;99.90;;;;;;5033358;28;20095;-53
2022/05/18 02:25:19;;;;;;;5.80;4.20;;;17.60;99.90;;;;;;5033599;28;20045;-52
2022/05/18 02:27:45;;;;;;;6.38;3.63;;;17.70;99.90;;;;;;5035255;28;20033;-51
2022/05/18 02:30:11;;;;;;;6.07;3.63;;;17.80;99.90;;;;;;5035274;28;20113;-51
2022/05/18 02:32:37;;;;;;;4.85;4.07;;;17.80;99.90;;;;;;5035083;28;20021;-55
2022/05/18 02:35:05;;;;;;;4.38;3.60;;;17.90;99.90;;;;;;5049878;28;20452;-54
2022/05/18 02:37:32;;;;;;;5.95;3.17;;;17.90;99.90;;;;;;5035094;28;20044;-54
2022/05/18 02:39:58;;;;;;;6.97;4.45;;;17.80;99.90;;;;;;5049880;28;20037;-53
2022/05/18 02:42:24;;;;;;;5.82;4.32;;;17.80;99.90;;;;;;5035191;28;20546;-55
2022/05/18 02:44:49;;;;;;;9.10;4.80;;;17.90;99.90;;;;;;5035059;28;20461;-51
2022/05/18 02:47:17;;;;;;;9.25;5.22;;;17.80;99.90;;;;;;5049724;28;20087;-54
2022/05/18 02:49:42;;;;;;;7.18;5.30;;;17.90;99.90;;;;;;5034932;28;20095;-52
2022/05/18 02:52:08;;;;;;;8.15;5.28;;;17.90;99.90;;;;;;5034723;28;20536;-52
2022/05/18 02:57:19;;;;;;;17.00;6.72;;;17.90;99.90;;;;;;5015195;28;20063;-52
2022/05/18 02:59:46;;;;;;;10.10;6.13;;;17.80;99.90;;;;;;5014784;28;20071;-50
2022/05/18 03:02:12;;;;;;;11.32;6.32;;;17.90;99.90;;;;;;5023746;28;20465;-53
2022/05/18 03:04:38;;;;;;;8.43;6.13;;;17.80;99.90;;;;;;5034605;28;20029;-51
2022/05/18 03:07:04;;;;;;;12.02;8.02;;;17.60;99.90;;;;;;5034644;28;20506;-53
2022/05/18 03:09:30;;;;;;;11.18;8.63;;;17.70;99.90;;;;;;5034922;28;20033;-52
2022/05/18 03:11:56;;;;;;;8.55;6.00;;;17.60;99.90;;;;;;5034488;28;20034;-53
2022/05/18 03:14:23;;;;;;;8.82;7.93;;;17.50;99.90;;;;;;5032956;28;20039;-52
2022/05/18 03:16:49;;;;;;;12.13;8.40;;;17.50;99.90;;;;;;5014593;28;20030;-56
2022/05/18 03:19:15;;;;;;;10.85;8.10;;;17.60;99.90;;;;;;5014707;28;20065;-54
2022/05/18 03:24:26;;;;;;;17.70;15.82;;;17.60;99.90;;;;;;5033991;28;20059;-55
2022/05/18 03:26:52;;;;;;;13.20;9.88;;;17.60;99.90;;;;;;5034330;28;20026;-51
2022/05/18 03:29:18;;;;;;;12.60;9.77;;;17.70;99.90;;;;;;5034172;28;20033;-55
2022/05/18 03:31:46;;;;;;;11.63;9.38;;;17.60;99.90;;;;;;5034109;28;20477;-52
2022/05/18 03:34:12;;;;;;;11.93;9.30;;;17.70;99.90;;;;;;5034404;28;20095;-52
2022/05/18 03:36:37;;;;;;;14.00;10.45;;;17.70;99.90;;;;;;5032306;28;20049;-54
2022/05/18 03:39:04;;;;;;;11.63;9.73;;;17.70;99.90;;;;;;5033927;28;20096;-54
2022/05/18 03:41:30;;;;;;;12.95;9.98;;;17.70;99.90;;;;;;5033948;28;20025;-52
2022/05/18 03:43:56;;;;;;;16.08;10.02;;;17.80;99.90;;;;;;5033953;28;20072;-54
2022/05/18 03:46:21;;;;;;;12.35;10.02;;;17.80;99.90;;;;;;5033799;28;20018;-52
2022/05/18 03:48:47;;;;;;;10.68;9.55;;;17.70;99.90;;;;;;5033935;28;20395;-54
2022/05/18 03:51:16;;;;;;;9.48;7.45;;;17.90;99.90;;;;;;5031934;28;20034;-50
2022/05/18 03:53:41;;;;;;;8.85;7.20;;;17.80;99.90;;;;;;5033699;28;20060;-54
2022/05/18 03:56:08;;;;;;;9.75;8.75;;;17.70;99.90;;;;;;5033283;28;20076;-52
2022/05/18 03:58:34;;;;;;;9.88;6.93;;;17.60;99.90;;;;;;5033681;28;20029;-52
2022/05/18 04:01:01;;;;;;;7.88;5.53;;;17.40;99.90;;;;;;5033691;28;20091;-52
2022/05/18 04:03:29;;;;;;;9.95;7.60;;;17.30;99.90;;;;;;5033540;28;20030;-52
2022/05/18 04:05:55;;;;;;;8.90;6.10;;;17.30;99.90;;;;;;5033443;28;20397;-53
2022/05/18 04:08:21;;;;;;;7.38;6.00;;;17.30;99.90;;;;;;5033542;28;20029;-52
2022/05/18 04:10:47;;;;;;;9.32;5.15;;;17.30;99.90;;;;;;5033460;28;20021;-50
2022/05/18 04:13:19;;;;;;;7.25;5.35;;;17.20;99.90;;;;;;5033398;28;20029;-54
2022/05/18 04:15:46;;;;;;;8.25;6.00;;;17.30;99.90;;;;;;5030328;28;20398;-54
2022/05/18 04:18:12;;;;;;;9.45;5.75;;;17.20;99.90;;;;;;5024518;28;20095;-52
2022/05/18 04:20:39;;;;;;;9.63;5.80;;;17.20;99.90;;;;;;5021704;28;20033;-52
2022/05/18 04:23:06;;;;;;;9.82;6.55;;;17.20;99.90;;;;;;5023023;28;20038;-52
2022/05/18 04:25:31;;;;;;;8.88;6.20;;;17.20;99.90;;;;;;5012062;28;20124;-53
2022/05/18 04:27:58;;;;;;;8.20;6.55;;;17.20;99.90;;;;;;4996008;28;20049;-53
2022/05/18 04:30:27;;;;;;;8.10;6.30;;;17.40;99.90;;;;;;5031622;28;20037;-53
2022/05/18 04:32:54;;;;;;;9.07;6.38;;;17.50;99.90;;;;;;5033308;28;20049;-54
2022/05/18 04:35:23;;;;;;;7.45;6.10;;;17.40;99.90;;;;;;5032017;28;20120;-53
2022/05/18 04:37:49;;;;;;;8.63;6.15;;;17.40;99.90;;;;;;5033318;28;20025;-51
2022/05/18 04:40:15;;;;;;;8.32;5.57;;;17.40;99.90;;;;;;5032994;28;20033;-55
2022/05/18 04:42:41;;;;;;;7.82;6.55;;;17.40;99.90;;;;;;5033226;28;20035;-54
2022/05/18 04:45:09;;;;;;;7.05;5.60;;;17.20;99.90;;;;;;5033160;28;20025;-50
2022/05/18 04:47:35;;;;;;;9.10;6.10;;;17.20;99.90;;;;;;5047877;28;20053;-53
2022/05/18 04:50:01;;;;;;;8.02;5.28;;;17.30;99.90;;;;;;5033013;28;20476;-51
2022/05/18 04:52:28;;;;;;;7.38;5.25;;;17.20;99.90;;;;;;5033302;28;20037;-51
2022/05/18 04:54:54;;;;;;;6.90;5.25;;;17.30;99.90;;;;;;5032949;28;20083;-53
2022/05/18 04:57:21;;;;;;;7.65;5.55;;;17.30;99.90;;;;;;5032935;28;20029;-50
2022/05/18 04:59:48;;;;;;;6.47;5.25;;;17.40;99.90;;;;;;5048114;28;20034;-54
2022/05/18 05:02:14;;;;;;;9.52;6.50;;;17.40;99.90;;;;;;5032893;28;20492;-54
2022/05/18 05:04:39;;;;;;;9.15;5.43;;;17.30;99.90;;;;;;5033060;28;20101;-52
2022/05/18 05:07:05;;;;;;;8.05;5.65;;;17.30;99.90;;;;;;5032992;28;20109;-53
2022/05/18 05:09:31;;;;;;;7.30;6.28;;;17.30;99.90;;;;;;5037152;28;20029;-51
2022/05/18 05:11:57;;;;;;;7.22;6.35;;;17.30;99.90;;;;;;5028686;28;20025;-50
2022/05/18 05:14:23;;;;;;;8.25;6.72;;;17.50;99.90;;;;;;5019510;28;20148;-50
2022/05/18 05:16:49;;;;;;;11.02;6.20;;;17.50;99.90;;;;;;5031648;28;20375;-53
2022/05/18 05:19:16;;;;;;;9.15;6.05;;;17.50;99.90;;;;;;5016839;28;20026;-51
2022/05/18 05:21:45;;;;;;;10.25;5.90;;;17.50;99.90;;;;;;5016804;28;20032;-52
2022/05/18 05:24:12;;;;;;;8.00;5.30;;;17.50;99.90;;;;;;5016527;28;20390;-53
2022/05/18 05:26:39;;;;;;;6.13;5.25;;;17.60;99.90;;;;;;5016701;28;20034;-54
2022/05/18 05:29:05;;;;;;;7.47;5.57;;;17.70;99.90;;;;;;5018122;28;20025;-51
2022/05/18 05:31:31;;;;;;;7.60;4.75;;;17.70;99.90;;;;;;5027169;28;20033;-54
2022/05/18 05:33:58;;;;;;;7.38;5.65;;;17.80;99.90;;;;;;5036769;28;20377;-53
2022/05/18 05:36:24;;;;;;;6.53;4.80;;;17.80;99.90;;;;;;5035397;28;20080;-54
2022/05/18 05:38:50;;;;;;;8.75;4.50;;;17.90;99.90;;;;;;5036335;28;20029;-54
2022/05/18 05:41:16;;;;;;;3.90;3.50;;;17.90;99.90;;;;;;5036284;28;20033;-55
2022/05/18 05:43:42;;;;;;;7.35;3.78;;;18.00;99.90;;;;;;5036280;28;20037;-51
2022/05/18 05:46:13;;;;;;;7.47;3.55;;;18.20;99.90;;;;;;5036200;28;20091;-53
2022/05/18 05:48:41;;;;;;;3.80;3.25;;;18.20;99.90;;;;;;5034553;28;20045;-51
2022/05/18 05:51:12;;;;;;;6.47;3.90;;;18.30;99.90;;;;;;5035313;28;20152;-54
2022/05/18 05:53:45;;;;;;;6.00;2.95;;;18.50;99.90;;;;;;5032409;28;20169;-53
2022/05/18 05:56:13;;;;;;;4.80;2.60;;;18.60;99.90;;;;;;5023486;28;20046;-55
2022/05/18 05:58:40;;;;;;;5.13;2.70;;;18.60;99.90;;;;;;5024741;28;20473;-53
2022/05/18 06:01:08;;;;;;;3.60;2.35;;;18.90;99.90;;;;;;5033585;28;20037;-53
2022/05/18 06:03:35;;;;;;;3.95;2.58;;;18.80;99.90;;;;;;5030396;28;20033;-55
2022/05/18 06:06:02;;;;;;;3.08;2.17;;;18.80;99.90;;;;;;5035651;28;20520;-53
2022/05/18 06:08:30;;;;;;;3.00;2.10;;;18.90;99.90;;;;;;5035487;28;20029;-52
2022/05/18 06:10:57;;;;;;;3.45;1.92;;;18.90;99.90;;;;;;5035669;28;20037;-51
2022/05/18 06:13:22;;;;;;;3.10;2.00;;;18.90;99.90;;;;;;5035920;28;20037;-52
2022/05/18 06:15:48;;;;;;;4.25;2.20;;;18.80;99.90;;;;;;5035511;28;20448;-52
2022/05/18 06:18:15;;;;;;;2.92;1.98;;;18.80;99.90;;;;;;5035640;28;20029;-53
2022/05/18 06:20:41;;;;;;;7.28;2.15;;;18.90;99.90;;;;;;5033052;28;20044;-51
2022/05/18 06:23:09;;;;;;;3.33;1.73;;;18.90;99.90;;;;;;5047030;28;20025;-51
2022/05/18 06:25:36;;;;;;;5.03;1.80;;;18.90;99.90;;;;;;5035387;28;20041;-53
2022/05/18 06:28:04;;;;;;;2.97;1.95;;;18.80;99.90;;;;;;5033039;28;20485;-53
2022/05/18 06:30:29;;;;;;;3.30;1.63;;;19.00;99.90;;;;;;5048219;28;20100;-51
2022/05/18 06:32:55;;;;;;;3.63;1.70;;;19.00;99.90;;;;;;5050178;28;20045;-52
2022/05/18 06:35:21;;;;;;;4.47;2.22;;;19.10;99.90;;;;;;5035369;28;20042;-54
2022/05/18 06:37:48;;;;;;;3.97;2.35;;;19.30;99.90;;;;;;5033516;28;20454;-53
2022/05/18 06:40:18;;;;;;;6.30;2.50;;;19.30;99.90;;;;;;5035494;28;20124;-54
2022/05/18 06:42:44;;;;;;;3.88;2.25;;;19.30;99.90;;;;;;5035136;28;20061;-51
2022/05/18 06:45:12;;;;;;;5.53;1.70;;;19.50;99.90;;;;;;5030207;28;20084;-54
2022/05/18 06:47:37;;;;;;;4.80;2.28;;;19.20;99.90;;;;;;5027420;28;20036;-50
2022/05/18 06:50:06;;;;;;;4.53;2.17;;;19.20;99.90;;;;;;5033861;28;20034;-53
2022/05/18 06:52:32;;;;;;;3.75;1.95;;;19.20;99.90;;;;;;5031377;28;20041;-50
2022/05/18 06:54:57;;;;;;;3.78;2.35;;;19.30;99.90;;;;;;5032657;28;20568;-52
2022/05/18 06:57:23;;;;;;;5.13;2.10;;;19.20;99.90;;;;;;5031780;28;20041;-52
2022/05/18 06:59:49;;;;;;;5.63;1.92;;;19.10;99.90;;;;;;5028792;28;20505;-53
2022/05/18 07:02:15;;;;;;;5.28;2.05;;;19.00;99.90;;;;;;5032641;28;20041;-51
2022/05/18 07:04:40;;;;;;;5.55;1.90;;;19.00;99.90;;;;;;5031943;28;20481;-54
2022/05/18 07:07:06;;;;;;;3.38;2.03;;;19.20;99.90;;;;;;5031946;28;20069;-52
2022/05/18 07:09:33;;;;;;;3.97;1.90;;;19.40;99.90;;;;;;5032124;28;20073;-53
2022/05/18 07:11:59;;;;;;;2.83;1.63;;;19.50;99.90;;;;;;5030545;28;20044;-52
2022/05/18 07:14:27;;;;;;;2.88;1.92;;;19.60;99.90;;;;;;5032343;28;20041;-52
2022/05/18 07:16:54;;;;;;;2.58;1.58;;;19.90;99.90;;;;;;5015790;28;20205;-53
2022/05/18 07:19:20;;;;;;;3.25;1.73;;;20.00;99.90;;;;;;5036793;28;20119;-53
2022/05/18 07:21:47;;;;;;;4.68;1.73;;;20.20;99.90;;;;;;5015698;28;20037;-52
2022/05/18 07:24:14;;;;;;;5.15;1.67;;;20.20;99.90;;;;;;5015300;28;20068;-51
2022/05/18 07:26:40;;;;;;;3.10;1.83;;;20.50;99.90;;;;;;5017990;28;20115;-52
2022/05/18 07:29:07;;;;;;;2.60;1.60;;;20.70;99.90;;;;;;5033435;28;20029;-52
2022/05/18 07:32:08;;;;;;;5.78;1.70;;;20.90;99.90;;;;;;5033028;28;20041;-53
2022/05/18 07:34:23;;;;;;;3.92;1.70;;;20.80;99.90;;;;;;5034037;28;20087;-52
2022/05/18 07:36:53;;;;;;;5.47;1.63;;;20.60;99.90;;;;;;5048896;28;20536;-52
2022/05/18 07:39:19;;;;;;;4.32;1.42;;;20.90;99.90;;;;;;5034261;28;20037;-56
2022/05/18 07:41:45;;;;;;;6.70;1.73;;;21.00;99.90;;;;;;5032443;28;20062;-53
2022/05/18 07:44:11;;;;;;;2.80;1.48;;;21.10;99.90;;;;;;5030951;28;20052;-52
2022/05/18 07:46:39;;;;;;;3.88;1.60;;;21.10;99.90;;;;;;5033809;28;20032;-50
2022/05/18 07:49:05;;;;;;;2.40;1.50;;;21.20;99.90;;;;;;5032185;28;20405;-55
2022/05/18 07:51:31;;;;;;;3.83;1.40;;;21.20;99.90;;;;;;5033698;28;20048;-55
2022/05/18 07:53:57;;;;;;;4.32;1.25;;;21.20;99.90;;;;;;5033679;28;20033;-51
2022/05/18 07:56:23;;;;;;;5.70;1.55;;;21.30;99.90;;;;;;5048774;28;20046;-53
2022/05/18 07:58:48;;;;;;;3.45;1.58;;;21.30;99.90;;;;;;5033548;28;20026;-53
2022/05/18 08:01:15;;;;;;;3.90;1.48;;;21.40;99.90;;;;;;5033706;28;20497;-54
2022/05/18 08:03:41;;;;;;;4.80;1.80;;;21.30;99.90;;;;;;5033510;28;20116;-54
2022/05/18 08:06:07;;;;;;;3.58;1.52;;;21.30;99.90;;;;;;5033751;28;20160;-54
2022/05/18 08:08:33;;;;;;;5.35;2.28;;;21.30;99.90;;;;;;5033687;28;20120;-55
2022/05/18 08:16:30;;;;;;;2.10;1.42;;;21.50;97.90;;;;;;5032582;28;20115;-54
2022/05/18 08:18:56;;;;;;;5.35;1.60;;;21.60;98.40;;;;;;5033441;28;20072;-55
2022/05/18 08:21:22;;;;;;;4.18;1.42;;;21.80;98.50;;;;;;5031640;28;20072;-51
2022/05/18 08:23:48;;;;;;;4.32;1.60;;;21.90;97.40;;;;;;5033435;28;20076;-55
2022/05/18 08:26:13;;;;;;;2.97;1.52;;;22.00;97.20;;;;;;5048251;28;20388;-55
2022/05/18 08:28:40;;;;;;;4.90;1.75;;;21.90;97.10;;;;;;5033356;28;20029;-51
2022/05/18 08:31:06;;;;;;;3.95;1.63;;;22.00;97.20;;;;;;5033481;28;20064;-52
2022/05/18 08:33:33;;;;;;;2.47;1.58;;;22.10;97.20;;;;;;5048202;28;20124;-50
2022/05/18 08:36:09;;;;;;;3.17;1.63;;;21.90;97.30;;;;;;5033371;28;20437;-52
2022/05/18 08:38:35;;;;;;;3.50;1.70;;;;;;;;;;5033179;28;20056;-51
2022/05/18 08:41:06;;;;;;;12.45;1.73;;;;;;;;;;5033063;28;20079;-49
2022/05/18 08:43:34;;;;;;;4.30;1.70;;;23.00;99.90;;;;;;5035794;28;20496;-51
2022/05/18 08:46:32;;;;;;;6.15;1.77;;;23.20;95.70;;;;;;5037231;28;20030;-52
2022/05/18 08:49:24;;;;;;;3.78;1.48;;;23.50;99.90;;;;;;5037384;28;20480;-53
2022/05/18 08:52:02;;;;;;;4.15;1.90;;;23.50;94.20;;;;;;5039952;28;20033;-52
2022/05/18 08:54:28;;;;;;;2.88;1.20;;;;;;;;;;5033178;28;20029;-50
2022/05/18 08:56:57;;;;;;;4.38;1.38;;;;;;;;;;5035793;28;20025;-52
2022/05/18 08:59:30;;;;;;;4.50;1.13;;;24.00;99.90;;;;;;5036748;28;20037;-49
2022/05/18 09:01:59;;;;;;;5.82;1.77;;;23.90;92.20;;;;;;5033286;28;20025;-52
2022/05/18 09:04:43;;;;;;;4.63;1.38;;;23.80;93.30;;;;;;5041097;28;20374;-53
2022/05/18 09:07:15;;;;;;;4.60;1.33;;;23.60;92.20;;;;;;5041553;28;20040;-50
2022/05/18 09:10:12;;;;;;;2.60;1.17;;;24.20;95.30;;;;;;5040381;28;20056;-52
2022/05/18 09:12:39;;;;;;;2.72;1.30;;;;;;;;;;5034763;28;20037;-53
2022/05/18 09:15:10;;;;;;;3.45;1.20;;;;;;;;;;5040319;28;20042;-49
2022/05/18 09:17:36;;;;;;;2.90;1.50;;;;;;;;;;5041195;28;20448;-52
2022/05/18 09:20:03;;;;;;;3.42;1.30;;;;;;;;;;5037819;28;20468;-53
2022/05/18 09:22:38;;;;;;;5.95;1.40;;;;;;;;;;5039140;28;20060;-50
2022/05/18 09:25:05;;;;;;;4.82;1.80;;;;;;;;;;5039414;28;20495;-50
2022/05/18 09:27:39;;;;;;;3.47;1.40;;;;;;;;;;5040808;28;20105;-50
2022/05/18 09:30:08;;;;;;;5.50;1.55;;;;;;;;;;5037774;28;20039;-53
2022/05/18 09:32:37;;;;;;;6.57;2.38;;;;;;;;;;5038575;28;20037;-52
2022/05/18 09:35:11;;;;;;;4.45;1.38;;;;;;;;;;5039941;28;20051;-52
2022/05/18 09:37:46;;;;;;;3.00;1.27;;;25.40;99.90;;;;;;5038804;28;20037;-51
2022/05/18 09:40:21;;;;;;;5.05;1.75;;;25.20;81.40;;;;;;5054920;28;20068;-52
2022/05/18 09:43:05;;;;;;;2.90;1.88;;;25.00;83.70;;;;;;5035350;28;20035;-52
2022/05/18 09:45:34;;;;;;;3.10;1.70;;;24.80;82.90;;;;;;5035590;28;20087;-52
2022/05/18 09:48:05;;;;;;;4.82;1.33;;;24.90;82.40;;;;;;5048687;28;20116;-50
2022/05/18 09:50:32;;;;;;;7.15;1.30;;;;;;;;;;5035767;28;20045;-50
2022/05/18 09:52:59;;;;;;;4.20;1.23;;;25.70;92.40;;;;;;5055741;28;20052;-50
2022/05/18 09:55:26;;;;;;;3.88;2.30;;;25.80;80.80;;;;;;5056310;28;20126;-53
2022/05/18 09:58:01;;;;;;;3.33;1.73;;;25.50;81.90;;;;;;5053908;28;20492;-50
2022/05/18 10:00:28;;;;;;;4.70;1.75;;;;;;;;;;5055844;28;20040;-52
2022/05/18 10:08:32;;;;;;;4.10;2.45;;;25.80;97.70;;;;;;5052776;28;20103;-49
2022/05/18 10:11:03;;;;;;;5.50;1.80;;;25.50;97.10;;;;;;5053470;28;20059;-51
2022/05/18 10:13:32;;;;;;;2.60;1.95;;;25.70;95.70;;;;;;5024799;28;20047;-49
2022/05/18 10:16:06;;;;;;;4.55;1.40;;;;;;;;;;5048032;28;20060;-51
2022/05/18 10:18:41;;;;;;;12.95;6.65;;;;;;;;;;5054860;28;20044;-51
2022/05/18 10:21:09;;;;;;;5.97;2.20;;;;;;;;;;5038295;28;20039;-52
2022/05/18 10:23:39;;;;;;;2.97;1.52;;;;;;;;;;5051995;28;20052;-50
2022/05/18 10:26:09;;;;;;;5.68;1.60;;;;;;;;;;5035441;28;20065;-50
2022/05/18 10:28:39;;;;;;;3.97;1.67;;;25.30;79.00;;;;;;5035542;28;20049;-51
2022/05/18 10:31:07;;;;;;;5.18;1.58;;;25.20;79.60;;;;;;5040283;28;20048;-52
2022/05/18 10:33:41;;;;;;;3.58;1.85;;;25.90;80.80;;;;;;5036687;28;20041;-50
2022/05/18 10:36:15;;;;;;;4.20;1.73;;;26.00;79.00;;;;;;5035295;28;20052;-50
2022/05/18 10:38:52;;;;;;;7.53;1.58;;;26.20;79.60;;;;;;5036850;28;20052;-52
2022/05/18 10:41:24;;;;;;;7.05;1.70;;;26.00;78.20;;;;;;5039663;28;20034;-51
2022/05/18 10:44:10;;;;;;;7.38;1.70;;;25.80;78.30;;;;;;5035880;28;20389;-49
2022/05/18 10:46:39;;;;;;;6.75;2.40;;;;;;;;;;5034887;28;20033;-52
2022/05/18 10:49:07;;;;;;;6.40;2.50;;;;;;;;;;5035013;28;20053;-51
2022/05/18 10:51:39;;;;;;;5.03;2.38;;;;;;;;;;5037964;28;20029;-50
2022/05/18 10:54:12;;;;;;;5.13;2.30;;;;;;;;;;5033521;28;20397;-52
2022/05/18 10:56:38;;;;;;;3.67;1.30;;;26.90;74.50;;;;;;5036798;28;20083;-51
2022/05/18 10:59:23;;;;;;;4.72;1.90;;;;;;;;;;5035244;28;20080;-50
2022/05/18 11:02:07;;;;;;;4.35;1.30;;;26.10;90.50;;;;;;5036541;28;20037;-50
2022/05/18 11:05:08;;;;;;;3.42;1.45;;;26.20;76.40;;;;;;5031793;28;20109;-53
2022/05/18 11:07:34;;;;;;;2.43;1.20;;;26.10;76.00;;;;;;5038148;28;20451;-52
2022/05/18 11:09:59;;;;;;;4.88;1.50;;;25.60;76.80;;;;;;5001766;28;20281;-50
2022/05/18 11:12:50;;;;;;;4.78;1.33;;;25.40;96.40;;;;;;5035695;28;20056;-50
2022/05/18 11:15:50;;;;;;;3.63;1.13;;;25.10;96.10;;;;;;5057198;28;20057;-52
2022/05/18 11:18:16;;;;;;;5.10;1.40;;;25.30;96.50;;;;;;5034756;28;20037;-52
2022/05/18 11:20:51;;;;;;;7.43;1.95;;;25.20;96.90;;;;;;5042687;28;20116;-49
2022/05/18 11:23:35;;;;;;;3.80;1.45;;;25.50;97.70;;;;;;5035730;28;20144;-50
2022/05/18 11:26:22;;;;;;;6.00;1.38;;;25.90;98.30;;;;;;5037716;28;20239;-51
2022/05/18 11:29:07;;;;;;;3.97;1.40;;;25.90;96.70;;;;;;5041426;28;20440;-50
2022/05/18 11:31:50;;;;;;;3.10;1.67;;;25.80;97.00;;;;;;5036760;28;20041;-51
2022/05/18 11:34:36;;;;;;;3.47;1.20;;;25.60;97.10;;;;;;5032355;28;20040;-53
2022/05/18 11:37:02;;;;;;;5.80;1.50;;;;;;;;;;5031221;28;20033;-51
2022/05/18 11:39:34;;;;;;;4.10;1.40;;;;;;;;;;5035058;28;20041;-52
2022/05/18 11:42:03;;;;;;;2.60;1.48;;;;;;;;;;5035046;28;20094;-52
2022/05/18 11:44:29;;;;;;;3.97;2.03;;;;;;;;;;5037141;28;20045;-51
2022/05/18 11:47:05;;;;;;;4.38;1.45;;;;;;;;;;5038599;28;20424;-51
2022/05/18 11:49:46;;;;;;;2.40;1.40;;;;;;;;;;5034853;28;20414;-52
2022/05/18 11:52:35;;;;;;;3.67;1.65;;;26.40;80.60;;;;;;5035513;28;20049;-51
2022/05/18 11:55:25;;;;;;;3.22;1.40;;;26.10;73.30;;;;;;5046721;28;20388;-52
2022/05/18 11:58:26;;;;;;;8.90;1.13;;;26.30;73.00;;;;;;5034389;28;20057;-53
2022/05/18 12:01:04;;;;;;;2.83;1.13;;;25.90;93.30;;;;;;5033064;28;20120;-51
2022/05/18 12:03:58;;;;;;;3.08;1.20;;;26.00;95.20;;;;;;5032866;28;20045;-50
2022/05/18 12:06:44;;;;;;;6.03;1.50;;;26.50;95.00;;;;;;5034777;28;20434;-52
2022/05/18 12:09:22;;;;;;;6.95;1.50;;;26.40;94.60;;;;;;5041858;28;20107;-50
2022/05/18 12:12:15;;;;;;;3.30;1.13;;;26.40;94.60;;;;;;5033721;28;20048;-52
2022/05/18 12:14:54;;;;;;;8.80;1.40;;;25.90;94.80;;;;;;5036150;28;20436;-53
2022/05/18 12:17:37;;;;;;;4.32;1.35;;;;;;;;;;5041453;28;20420;-50
2022/05/18 12:20:03;;;;;;;6.03;1.05;;;;;;;;;;5028068;28;20484;-51
2022/05/18 12:22:34;;;;;;;6.10;1.08;;;;;;;;;;5039505;28;20033;-51
2022/05/18 12:25:01;;;;;;;4.20;1.38;;;;;;;;;;5034080;28;20049;-51
2022/05/18 12:27:27;;;;;;;7.07;1.38;;;;;;;;;;5032415;28;20045;-51
2022/05/18 12:29:56;;;;;;;2.17;0.93;;;;;;;;;;5050316;28;20034;-52
2022/05/18 12:32:23;;;;;;;3.63;1.23;;;;;;;;;;5035982;28;20086;-53
2022/05/18 12:35:02;;;;;;;3.33;1.00;;;;;;;;;;5032678;28;20043;-53
2022/05/18 12:37:33;;;;;;;3.53;1.13;;;;;;;;;;5030274;28;20033;-50
2022/05/18 12:40:25;;;;;;;5.40;1.40;;;;;;;;;;5039510;28;20025;-50
2022/05/18 12:42:57;;;;;;;10.23;1.92;;;;;;;;;;5039322;28;20519;-53
2022/05/18 12:45:26;;;;;;;4.97;1.33;;;;;;;;;;5033977;28;20037;-50
2022/05/18 12:48:02;;;;;;;4.10;1.20;;;;;;;;;;5036230;28;20037;-52
2022/05/18 12:50:40;;;;;;;3.95;1.10;;;;;;;;;;5034989;28;20068;-50
2022/05/18 12:53:14;;;;;;;3.15;1.27;;;;;;;;;;5028311;28;20040;-52
2022/05/18 12:55:52;;;;;;;3.90;1.10;;;;;;;;;;5030454;28;20052;-50
2022/05/18 12:58:50;;;;;;;4.05;1.75;;;;;;;;;;5029777;28;20064;-52
2022/05/18 13:01:18;;;;;;;5.88;1.30;;;;;;;;;;4988864;28;20030;-53
2022/05/18 13:04:02;;;;;;;3.63;1.27;;;;;;;;;;4991412;28;20046;-52
2022/05/18 13:06:39;;;;;;;3.63;1.15;;;;;;;;;;4991573;28;20106;-51
2022/05/18 13:09:17;;;;;;;3.33;1.17;;;;;;;;;;4985546;28;21138;-52
2022/05/18 13:11:43;;;;;;;4.68;1.15;;;27.40;66.00;;;;;;4991026;28;20038;-50
2022/05/18 13:14:15;;;;;;;2.65;0.98;;;;;;;;;;4990491;28;20514;-52
2022/05/18 13:16:41;;;;;;;3.85;0.95;;;26.10;79.50;;;;;;4991200;28;20054;-51
2022/05/18 13:19:20;;;;;;;2.33;0.90;;;;;;;;;;4990297;28;20498;-51
2022/05/18 13:21:48;;;;;;;3.50;1.10;;;;;;;;;;4990375;28;20042;-50
2022/05/18 13:24:18;;;;;;;3.78;1.52;;;;;;;;;;4990185;28;20407;-52
2022/05/18 13:26:47;;;;;;;3.20;0.90;;;;;;;;;;4988362;28;20076;-53
2022/05/18 13:29:17;;;;;;;3.83;1.13;;;;;;;;;;4991580;28;20088;-51
2022/05/18 13:31:46;;;;;;;7.50;1.20;;;;;;;;;;4994732;28;20030;-49
2022/05/18 13:34:19;;;;;;;4.47;1.10;;;;;;;;;;4999732;28;21184;-53
2022/05/18 13:36:56;;;;;;;4.07;1.27;;;;;;;;;;5010425;28;20432;-51
2022/05/18 13:39:27;;;;;;;2.28;0.85;;;;;;;;;;5035970;28;20090;-51
2022/05/18 13:41:53;;;;;;;1.60;0.97;;;26.60;59.40;;;;;;5035929;28;20032;-51